aviador You're here:

KS32 Decoded Metar

in
Report Time2017-05-25 01:15:00
UTC Time2017-05-25 01:15:29
Flight Rules vfr VFR
Wind150° at 19 Gusting to 26 kt
W.Rank150° ranks 11
Current wind is above 150° avg. (10.1)
Visibility9999 m
Phenomena:N/A
Clouds:N/A
Expected CloudBase > 3,600 ft AGL from Temp-Dew spread
CeilingNone
Temp15°C
Dew Point06°C (55% RH)
AAT7.2°C
QNH1001 hPa
Raw Report
METAR KS32 250115Z AUTO 15019G26KT 10SM CLR 15/06 A2957 RMK AO2=

Extra information for KS32:More info

Social comments